Terminal Aerodrome Forecast
Issued by NWS Shreveport, LA

Home | Current Version | Previous Version | Text Only | Print | Product List | Glossary On
Versions: 1 2 3 4 5 6 7 8 9 10 11 12 13 14
000
FTUS44 KSHV 302300
TAFGGG
TAF
KGGG 302320Z 0100/0124 17009KT P6SM FEW070
     FM011000 15004KT P6SM BKN015
      TEMPO 0110/0114 5SM BR
     FM011500 18006KT P6SM BKN025
     FM011700 18010KT P6SM SCT035=

USA.gov is the U.S. government's official web portal to all federal, state and local government web resources and services.